PWSweather.com
Personal Weather Stations
Station Observations
KMIEASTT1
Tawas Bay, East Tawas, MI 48730

Tawas BayEast Tawas, MI 48730

Lat: 44.28, Lon: -83.48

Elevation: 600

Station Type: Davis VantagePro

http://www.tawasbayweather.com

High Low Average
Temperature 33.7°F0.9°C 26.8°F-2.9°C 30.3°F-0.9°C
Dew Point 32.6°F0.3°C 22.7°F-5.2°C 27.5°F-2.5°C
Winds 13.0 mph 20.9 kmh 1.0 mph 1.6 kmh 7.0 mph SSE11.3 kmh SSE
Wind Gusts 17.0 mph27.4 kmh 2.0 mph3.2 kmh 9.0 mph14.5 kmh
Humidity 97% 82% 89%
Pressure 30.17 in1021.7 mb 29.57 in1001.4 mb -
Precipitation 0.00 in0.0 mm - -
Hour Temp Dew Point Humidity Winds Wind Gusts Pressure Precip Precip Rate Daily Precip Total
12:02 AM 28.5°F-1.9°C 24.6°F-4.1°C 85% 11.0 mph SE17.7 kmh SE 17.0 mph27.4 kmh 30.17 in1021.7 mb 0.00 in0.0 mm 0.00 in/hr0.0 mm/hr 0.00 in0.0 mm
12:16 AM 28.4°F-2.0°C 23.6°F-4.7°C 82% 12.0 mph SE19.3 kmh SE 16.0 mph25.7 kmh 30.16 in1021.3 mb 0.00 in0.0 mm 0.00 in/hr0.0 mm/hr 0.00 in0.0 mm
12:31 AM 27.5°F-2.5°C 23.3°F-4.8°C 84% 11.0 mph SE17.7 kmh SE 13.0 mph20.9 kmh 30.16 in1021.3 mb 0.00 in0.0 mm 0.00 in/hr0.0 mm/hr 0.00 in0.0 mm
12:45 AM 27.5°F-2.5°C 23.0°F-5.0°C 83% 10.0 mph SE16.1 kmh SE 14.0 mph22.5 kmh 30.15 in1021.0 mb 0.00 in0.0 mm 0.00 in/hr0.0 mm/hr 0.00 in0.0 mm
01:02 AM 27.3°F-2.6°C 22.8°F-5.1°C 83% 13.0 mph SE20.9 kmh SE 13.0 mph20.9 kmh 30.14 in1020.7 mb 0.00 in0.0 mm 0.00 in/hr0.0 mm/hr 0.00 in0.0 mm
01:16 AM 27.2°F-2.7°C 22.7°F-5.2°C 83% 11.0 mph SE17.7 kmh SE 13.0 mph20.9 kmh 30.14 in1020.7 mb 0.00 in0.0 mm 0.00 in/hr0.0 mm/hr 0.00 in0.0 mm
01:31 AM 27.0°F-2.8°C 22.8°F-5.1°C 84% 10.0 mph SE16.1 kmh SE 12.0 mph19.3 kmh 30.13 in1020.3 mb 0.00 in0.0 mm 0.00 in/hr0.0 mm/hr 0.00 in0.0 mm
01:46 AM 27.6°F-2.4°C 22.8°F-5.1°C 82% 11.0 mph SSE17.7 kmh SSE 13.0 mph20.9 kmh 30.12 in1020.0 mb 0.00 in0.0 mm 0.00 in/hr0.0 mm/hr 0.00 in0.0 mm
02:02 AM 27.6°F-2.4°C 23.1°F-4.9°C 83% 10.0 mph SSE16.1 kmh SSE 14.0 mph22.5 kmh 30.12 in1020.0 mb 0.00 in0.0 mm 0.00 in/hr0.0 mm/hr 0.00 in0.0 mm
02:16 AM 28.1°F-2.2°C 23.3°F-4.8°C 82% 10.0 mph SSE16.1 kmh SSE 14.0 mph22.5 kmh 30.12 in1020.0 mb 0.00 in0.0 mm 0.00 in/hr0.0 mm/hr 0.00 in0.0 mm
02:31 AM 28.0°F-2.2°C 23.2°F-4.9°C 82% 8.0 mph SSE12.9 kmh SSE 12.0 mph19.3 kmh 30.11 in1019.6 mb 0.00 in0.0 mm 0.00 in/hr0.0 mm/hr 0.00 in0.0 mm
02:46 AM 28.1°F-2.2°C 23.6°F-4.7°C 83% 9.0 mph SE14.5 kmh SE 11.0 mph17.7 kmh 30.10 in1019.3 mb 0.00 in0.0 mm 0.00 in/hr0.0 mm/hr 0.00 in0.0 mm
03:02 AM 27.6°F-2.4°C 23.4°F-4.8°C 84% 8.0 mph SE12.9 kmh SE 10.0 mph16.1 kmh 30.08 in1018.6 mb 0.00 in0.0 mm 0.00 in/hr0.0 mm/hr 0.00 in0.0 mm
03:15 AM 27.6°F-2.4°C 23.7°F-4.6°C 85% 7.0 mph SE11.3 kmh SE 11.0 mph17.7 kmh 30.07 in1018.3 mb 0.00 in0.0 mm 0.00 in/hr0.0 mm/hr 0.00 in0.0 mm
03:31 AM 27.3°F-2.6°C 23.4°F-4.8°C 85% 8.0 mph SE12.9 kmh SE 10.0 mph16.1 kmh 30.06 in1017.9 mb 0.00 in0.0 mm 0.00 in/hr0.0 mm/hr 0.00 in0.0 mm
03:45 AM 26.9°F-2.8°C 23.3°F-4.8°C 86% 9.0 mph SE14.5 kmh SE 10.0 mph16.1 kmh 30.05 in1017.6 mb 0.00 in0.0 mm 0.00 in/hr0.0 mm/hr 0.00 in0.0 mm
04:02 AM 26.8°F-2.9°C 23.2°F-4.9°C 86% 7.0 mph SE11.3 kmh SE 11.0 mph17.7 kmh 30.04 in1017.3 mb 0.00 in0.0 mm 0.00 in/hr0.0 mm/hr 0.00 in0.0 mm
04:16 AM 27.0°F-2.8°C 23.7°F-4.6°C 87% 10.0 mph SE16.1 kmh SE 11.0 mph17.7 kmh 30.02 in1016.6 mb 0.00 in0.0 mm 0.00 in/hr0.0 mm/hr 0.00 in0.0 mm
04:30 AM 27.2°F-2.7°C 23.9°F-4.5°C 87% 10.0 mph SE16.1 kmh SE 11.0 mph17.7 kmh 30.01 in1016.3 mb 0.00 in0.0 mm 0.00 in/hr0.0 mm/hr 0.00 in0.0 mm
04:46 AM 27.6°F-2.4°C 24.2°F-4.3°C 87% 8.0 mph SE12.9 kmh SE 11.0 mph17.7 kmh 30.00 in1015.9 mb 0.00 in0.0 mm 0.00 in/hr0.0 mm/hr 0.00 in0.0 mm
05:02 AM 27.3°F-2.6°C 24.2°F-4.3°C 88% 8.0 mph SE12.9 kmh SE 10.0 mph16.1 kmh 29.99 in1015.6 mb 0.00 in0.0 mm 0.00 in/hr0.0 mm/hr 0.00 in0.0 mm
05:16 AM 28.0°F-2.2°C 24.9°F-3.9°C 88% 10.0 mph SE16.1 kmh SE 11.0 mph17.7 kmh 29.97 in1014.9 mb 0.00 in0.0 mm 0.00 in/hr0.0 mm/hr 0.00 in0.0 mm
05:31 AM 28.5°F-1.9°C 25.4°F-3.7°C 88% 8.0 mph SE12.9 kmh SE 11.0 mph17.7 kmh 29.96 in1014.6 mb 0.00 in0.0 mm 0.00 in/hr0.0 mm/hr 0.00 in0.0 mm
05:46 AM 28.1°F-2.2°C 24.7°F-4.1°C 87% 7.0 mph SE11.3 kmh SE 9.0 mph14.5 kmh 29.95 in1014.2 mb 0.00 in0.0 mm 0.00 in/hr0.0 mm/hr 0.00 in0.0 mm
06:02 AM 28.0°F-2.2°C 24.9°F-3.9°C 88% 7.0 mph ESE11.3 kmh ESE 10.0 mph16.1 kmh 29.93 in1013.5 mb 0.00 in0.0 mm 0.00 in/hr0.0 mm/hr 0.00 in0.0 mm
06:16 AM 27.3°F-2.6°C 24.2°F-4.3°C 88% 7.0 mph ESE11.3 kmh ESE 9.0 mph14.5 kmh 29.92 in1013.2 mb 0.00 in0.0 mm 0.00 in/hr0.0 mm/hr 0.00 in0.0 mm
06:31 AM 28.1°F-2.2°C 25.0°F-3.9°C 88% 9.0 mph ESE14.5 kmh ESE 11.0 mph17.7 kmh 29.90 in1012.5 mb 0.00 in0.0 mm 0.00 in/hr0.0 mm/hr 0.00 in0.0 mm
06:46 AM 28.5°F-1.9°C 25.4°F-3.7°C 88% 7.0 mph E11.3 kmh E 10.0 mph16.1 kmh 29.88 in1011.9 mb 0.00 in0.0 mm 0.00 in/hr0.0 mm/hr 0.00 in0.0 mm
07:02 AM 28.8°F-1.8°C 25.7°F-3.5°C 88% 8.0 mph ESE12.9 kmh ESE 10.0 mph16.1 kmh 29.86 in1011.2 mb 0.00 in0.0 mm 0.00 in/hr0.0 mm/hr 0.00 in0.0 mm
07:16 AM 27.9°F-2.3°C 24.8°F-4.0°C 88% 5.0 mph ESE8.0 kmh ESE 8.0 mph12.9 kmh 29.84 in1010.5 mb 0.00 in0.0 mm 0.00 in/hr0.0 mm/hr 0.00 in0.0 mm
07:31 AM 28.3°F-2.1°C 25.2°F-3.8°C 88% 3.0 mph E4.8 kmh E 7.0 mph11.3 kmh 29.83 in1010.2 mb 0.00 in0.0 mm 0.00 in/hr0.0 mm/hr 0.00 in0.0 mm
07:46 AM 27.9°F-2.3°C 25.1°F-3.8°C 89% 5.0 mph E8.0 kmh E 7.0 mph11.3 kmh 29.83 in1010.2 mb 0.00 in0.0 mm 0.00 in/hr0.0 mm/hr 0.00 in0.0 mm
08:01 AM 29.0°F-1.7°C 25.9°F-3.4°C 88% 6.0 mph E9.7 kmh E 6.0 mph9.7 kmh 29.82 in1009.8 mb 0.00 in0.0 mm 0.00 in/hr0.0 mm/hr 0.00 in0.0 mm
08:17 AM 28.9°F-1.7°C 25.5°F-3.6°C 87% 5.0 mph E8.0 kmh E 6.0 mph9.7 kmh 29.80 in1009.1 mb 0.00 in0.0 mm 0.00 in/hr0.0 mm/hr 0.00 in0.0 mm
08:31 AM 28.6°F-1.9°C 25.5°F-3.6°C 88% 4.0 mph ESE6.4 kmh ESE 7.0 mph11.3 kmh 29.80 in1009.1 mb 0.00 in0.0 mm 0.00 in/hr0.0 mm/hr 0.00 in0.0 mm
08:47 AM 29.3°F-1.5°C 26.2°F-3.2°C 88% 3.0 mph ESE4.8 kmh ESE 5.0 mph8.0 kmh 29.79 in1008.8 mb 0.00 in0.0 mm 0.00 in/hr0.0 mm/hr 0.00 in0.0 mm
09:02 AM 29.4°F-1.4°C 26.6°F-3.0°C 89% 6.0 mph SE9.7 kmh SE 6.0 mph9.7 kmh 29.80 in1009.1 mb 0.00 in0.0 mm 0.00 in/hr0.0 mm/hr 0.00 in0.0 mm
09:16 AM 29.9°F-1.2°C 27.1°F-2.7°C 89% 7.0 mph SE11.3 kmh SE 8.0 mph12.9 kmh 29.79 in1008.8 mb 0.00 in0.0 mm 0.00 in/hr0.0 mm/hr 0.00 in0.0 mm
09:31 AM 31.2°F-0.4°C 27.8°F-2.3°C 87% 6.0 mph SSE9.7 kmh SSE 8.0 mph12.9 kmh 29.78 in1008.5 mb 0.00 in0.0 mm 0.00 in/hr0.0 mm/hr 0.00 in0.0 mm
09:46 AM 31.5°F-0.3°C 28.1°F-2.2°C 87% 3.0 mph SSE4.8 kmh SSE 7.0 mph11.3 kmh 29.77 in1008.1 mb 0.00 in0.0 mm 0.00 in/hr0.0 mm/hr 0.00 in0.0 mm
10:02 AM 32.0°F0.0°C 28.0°F-2.2°C 85% 9.0 mph SSE14.5 kmh SSE 10.0 mph16.1 kmh 29.77 in1008.1 mb 0.00 in0.0 mm 0.00 in/hr0.0 mm/hr 0.00 in0.0 mm
10:16 AM 32.2°F0.1°C 27.9°F-2.3°C 84% 7.0 mph S11.3 kmh S 9.0 mph14.5 kmh 29.76 in1007.8 mb 0.00 in0.0 mm 0.00 in/hr0.0 mm/hr 0.00 in0.0 mm
10:31 AM 32.3°F0.2°C 28.3°F-2.1°C 85% 7.0 mph SE11.3 kmh SE 8.0 mph12.9 kmh 29.74 in1007.1 mb 0.00 in0.0 mm 0.00 in/hr0.0 mm/hr 0.00 in0.0 mm
10:45 AM 32.4°F0.2°C 28.7°F-1.8°C 86% 7.0 mph SSE11.3 kmh SSE 8.0 mph12.9 kmh 29.73 in1006.8 mb 0.00 in0.0 mm 0.00 in/hr0.0 mm/hr 0.00 in0.0 mm
11:16 AM 32.7°F0.4°C 29.6°F-1.3°C 88% 2.0 mph SE3.2 kmh SE 3.0 mph4.8 kmh 29.71 in1006.1 mb 0.00 in0.0 mm 0.00 in/hr0.0 mm/hr 0.00 in0.0 mm
11:31 AM 32.8°F0.4°C 29.6°F-1.3°C 88% 2.0 mph SE3.2 kmh SE 3.0 mph4.8 kmh 29.70 in1005.8 mb 0.00 in0.0 mm 0.00 in/hr0.0 mm/hr 0.00 in0.0 mm
11:45 AM 32.8°F0.4°C 29.9°F-1.2°C 89% 3.0 mph SE4.8 kmh SE 3.0 mph4.8 kmh 29.70 in1005.8 mb 0.00 in0.0 mm 0.00 in/hr0.0 mm/hr 0.00 in0.0 mm
12:02 PM 33.3°F0.7°C 30.7°F-0.7°C 90% 2.0 mph SE3.2 kmh SE 2.0 mph3.2 kmh 29.69 in1005.4 mb 0.00 in0.0 mm 0.00 in/hr0.0 mm/hr 0.00 in0.0 mm
12:16 PM 33.4°F0.8°C 30.2°F-1.0°C 88% 1.0 mph SE1.6 kmh SE 3.0 mph4.8 kmh 29.68 in1005.1 mb 0.00 in0.0 mm 0.00 in/hr0.0 mm/hr 0.00 in0.0 mm
12:30 PM 32.5°F0.3°C 29.4°F-1.4°C 88% 7.0 mph SSW11.3 kmh SSW 8.0 mph12.9 kmh 29.67 in1004.7 mb 0.00 in0.0 mm 0.00 in/hr0.0 mm/hr 0.00 in0.0 mm
12:46 PM 31.7°F-0.2°C 29.7°F-1.3°C 92% 7.0 mph S11.3 kmh S 8.0 mph12.9 kmh 29.66 in1004.4 mb 0.00 in0.0 mm 0.00 in/hr0.0 mm/hr 0.00 in0.0 mm
01:02 PM 31.9°F-0.1°C 30.4°F-0.9°C 94% 5.0 mph S8.0 kmh S 6.0 mph9.7 kmh 29.65 in1004.1 mb 0.00 in0.0 mm 0.00 in/hr0.0 mm/hr 0.00 in0.0 mm
01:15 PM 32.4°F0.2°C 30.9°F-0.6°C 94% 5.0 mph SSW8.0 kmh SSW 7.0 mph11.3 kmh 29.64 in1003.7 mb 0.00 in0.0 mm 0.00 in/hr0.0 mm/hr 0.00 in0.0 mm
01:31 PM 32.6°F0.3°C 31.3°F-0.4°C 95% 6.0 mph SSW9.7 kmh SSW 8.0 mph12.9 kmh 29.62 in1003.0 mb 0.00 in0.0 mm 0.00 in/hr0.0 mm/hr 0.00 in0.0 mm
01:46 PM 32.7°F0.4°C 31.4°F-0.3°C 95% 10.0 mph S16.1 kmh S 10.0 mph16.1 kmh 29.62 in1003.0 mb 0.00 in0.0 mm 0.00 in/hr0.0 mm/hr 0.00 in0.0 mm
02:02 PM 32.6°F0.3°C 31.3°F-0.4°C 95% 7.0 mph S11.3 kmh S 8.0 mph12.9 kmh 29.61 in1002.7 mb 0.00 in0.0 mm 0.00 in/hr0.0 mm/hr 0.00 in0.0 mm
02:16 PM 32.6°F0.3°C 31.6°F-0.2°C 96% 5.0 mph S8.0 kmh S 8.0 mph12.9 kmh 29.60 in1002.4 mb 0.00 in0.0 mm 0.00 in/hr0.0 mm/hr 0.00 in0.0 mm
02:31 PM 32.7°F0.4°C 31.7°F-0.2°C 96% 6.0 mph SSW9.7 kmh SSW 7.0 mph11.3 kmh 29.60 in1002.4 mb 0.00 in0.0 mm 0.00 in/hr0.0 mm/hr 0.00 in0.0 mm
02:46 PM 32.9°F0.5°C 31.9°F-0.1°C 96% 7.0 mph SSW11.3 kmh SSW 8.0 mph12.9 kmh 29.59 in1002.0 mb 0.00 in0.0 mm 0.00 in/hr0.0 mm/hr 0.00 in0.0 mm
03:02 PM 32.9°F0.5°C 31.9°F-0.1°C 96% 5.0 mph SW8.0 kmh SW 9.0 mph14.5 kmh 29.59 in1002.0 mb 0.00 in0.0 mm 0.00 in/hr0.0 mm/hr 0.00 in0.0 mm
03:16 PM 33.3°F0.7°C 32.0°F0.0°C 95% 7.0 mph SW11.3 kmh SW 9.0 mph14.5 kmh 29.58 in1001.7 mb 0.00 in0.0 mm 0.00 in/hr0.0 mm/hr 0.00 in0.0 mm
03:30 PM 33.4°F0.8°C 32.1°F0.1°C 95% 7.0 mph SW11.3 kmh SW 11.0 mph17.7 kmh 29.58 in1001.7 mb 0.00 in0.0 mm 0.00 in/hr0.0 mm/hr 0.00 in0.0 mm
03:46 PM 33.3°F0.7°C 32.0°F0.0°C 95% 7.0 mph SW11.3 kmh SW 10.0 mph16.1 kmh 29.58 in1001.7 mb 0.00 in0.0 mm 0.00 in/hr0.0 mm/hr 0.00 in0.0 mm
04:02 PM 33.4°F0.8°C 32.1°F0.1°C 95% 8.0 mph SW12.9 kmh SW 11.0 mph17.7 kmh 29.58 in1001.7 mb 0.00 in0.0 mm 0.00 in/hr0.0 mm/hr 0.00 in0.0 mm
04:15 PM 33.4°F0.8°C 32.1°F0.1°C 95% 5.0 mph WSW8.0 kmh WSW 10.0 mph16.1 kmh 29.58 in1001.7 mb 0.00 in0.0 mm 0.00 in/hr0.0 mm/hr 0.00 in0.0 mm
04:30 PM 33.7°F0.9°C 32.4°F0.2°C 95% 6.0 mph SW9.7 kmh SW 11.0 mph17.7 kmh 29.58 in1001.7 mb 0.00 in0.0 mm 0.00 in/hr0.0 mm/hr 0.00 in0.0 mm
04:46 PM 33.5°F0.8°C 32.2°F0.1°C 95% 6.0 mph SW9.7 kmh SW 10.0 mph16.1 kmh 29.58 in1001.7 mb 0.00 in0.0 mm 0.00 in/hr0.0 mm/hr 0.00 in0.0 mm
05:02 PM 33.4°F0.8°C 32.1°F0.1°C 95% 7.0 mph SW11.3 kmh SW 10.0 mph16.1 kmh 29.59 in1002.0 mb 0.00 in0.0 mm 0.00 in/hr0.0 mm/hr 0.00 in0.0 mm
05:16 PM 33.4°F0.8°C 32.4°F0.2°C 96% 8.0 mph SW12.9 kmh SW 11.0 mph17.7 kmh 29.58 in1001.7 mb 0.00 in0.0 mm 0.00 in/hr0.0 mm/hr 0.00 in0.0 mm
05:30 PM 33.3°F0.7°C 32.3°F0.2°C 96% 6.0 mph SW9.7 kmh SW 9.0 mph14.5 kmh 29.58 in1001.7 mb 0.00 in0.0 mm 0.00 in/hr0.0 mm/hr 0.00 in0.0 mm
05:46 PM 33.2°F0.7°C 32.2°F0.1°C 96% 5.0 mph SW8.0 kmh SW 7.0 mph11.3 kmh 29.58 in1001.7 mb 0.00 in0.0 mm 0.00 in/hr0.0 mm/hr 0.00 in0.0 mm
06:02 PM 33.3°F0.7°C 32.3°F0.2°C 96% 5.0 mph SSW8.0 kmh SSW 7.0 mph11.3 kmh 29.58 in1001.7 mb 0.00 in0.0 mm 0.00 in/hr0.0 mm/hr 0.00 in0.0 mm
06:16 PM 33.3°F0.7°C 32.3°F0.2°C 96% 5.0 mph SSW8.0 kmh SSW 7.0 mph11.3 kmh 29.57 in1001.4 mb 0.00 in0.0 mm 0.00 in/hr0.0 mm/hr 0.00 in0.0 mm
06:31 PM 33.4°F0.8°C 32.6°F0.3°C 97% 6.0 mph SW9.7 kmh SW 7.0 mph11.3 kmh 29.58 in1001.7 mb 0.00 in0.0 mm 0.00 in/hr0.0 mm/hr 0.00 in0.0 mm
06:46 PM 33.6°F0.9°C 32.8°F0.4°C 97% 7.0 mph SW11.3 kmh SW 8.0 mph12.9 kmh 29.58 in1001.7 mb 0.00 in0.0 mm 0.00 in/hr0.0 mm/hr 0.00 in0.0 mm
07:03 PM 33.6°F0.9°C 32.8°F0.4°C 97% 6.0 mph SW9.7 kmh SW 9.0 mph14.5 kmh 29.58 in1001.7 mb 0.00 in0.0 mm 0.00 in/hr0.0 mm/hr 0.00 in0.0 mm
07:16 PM 33.8°F1.0°C 33.0°F0.6°C 97% 5.0 mph SW8.0 kmh SW 9.0 mph14.5 kmh 29.58 in1001.7 mb 0.00 in0.0 mm 0.00 in/hr0.0 mm/hr 0.00 in0.0 mm
07:31 PM 34.1°F1.2°C 33.3°F0.7°C 97% 7.0 mph SW11.3 kmh SW 11.0 mph17.7 kmh 29.58 in1001.7 mb 0.00 in0.0 mm 0.00 in/hr0.0 mm/hr 0.00 in0.0 mm
07:46 PM 34.1°F1.2°C 33.3°F0.7°C 97% 8.0 mph SW12.9 kmh SW 9.0 mph14.5 kmh 29.57 in1001.4 mb 0.00 in0.0 mm 0.00 in/hr0.0 mm/hr 0.00 in0.0 mm
08:00 PM 34.1°F1.2°C 33.1°F0.6°C 96% 7.0 mph SSW11.3 kmh SSW 7.0 mph11.3 kmh 29.57 in1001.4 mb 0.00 in0.0 mm 0.00 in/hr0.0 mm/hr 0.00 in0.0 mm
08:15 PM 34.1°F1.2°C 33.1°F0.6°C 96% 7.0 mph SW11.3 kmh SW 8.0 mph12.9 kmh 29.57 in1001.4 mb 0.00 in0.0 mm 0.00 in/hr0.0 mm/hr 0.00 in0.0 mm
08:30 PM 34.1°F1.2°C 33.1°F0.6°C 96% 8.0 mph SW12.9 kmh SW 9.0 mph14.5 kmh 29.57 in1001.4 mb 0.00 in0.0 mm 0.00 in/hr0.0 mm/hr 0.00 in0.0 mm
08:46 PM 34.4°F1.3°C 33.4°F0.8°C 96% 9.0 mph SW14.5 kmh SW 11.0 mph17.7 kmh 29.57 in1001.4 mb 0.00 in0.0 mm 0.00 in/hr0.0 mm/hr 0.00 in0.0 mm
09:02 PM 35.2°F1.8°C 33.9°F1.1°C 95% 9.0 mph WSW14.5 kmh WSW 13.0 mph20.9 kmh 29.57 in1001.4 mb 0.00 in0.0 mm 0.00 in/hr0.0 mm/hr 0.00 in0.0 mm
09:16 PM 35.3°F1.8°C 33.8°F1.0°C 94% 9.0 mph WSW14.5 kmh WSW 16.0 mph25.7 kmh 29.58 in1001.7 mb 0.00 in0.0 mm 0.00 in/hr0.0 mm/hr 0.00 in0.0 mm
09:31 PM 35.4°F1.9°C 33.9°F1.1°C 94% 11.0 mph WSW17.7 kmh WSW 15.0 mph24.1 kmh 29.58 in1001.7 mb 0.00 in0.0 mm 0.00 in/hr0.0 mm/hr 0.00 in0.0 mm
09:45 PM 35.4°F1.9°C 33.6°F0.9°C 93% 9.0 mph WSW14.5 kmh WSW 14.0 mph22.5 kmh 29.58 in1001.7 mb 0.00 in0.0 mm 0.00 in/hr0.0 mm/hr 0.00 in0.0 mm
10:03 PM 35.9°F2.2°C 34.1°F1.2°C 93% 9.0 mph WSW14.5 kmh WSW 13.0 mph20.9 kmh 29.59 in1002.0 mb 0.00 in0.0 mm 0.00 in/hr0.0 mm/hr 0.00 in0.0 mm
10:15 PM 36.6°F2.6°C 33.7°F0.9°C 89% 12.0 mph WSW19.3 kmh WSW 24.0 mph38.6 kmh 29.59 in1002.0 mb 0.00 in0.0 mm 0.00 in/hr0.0 mm/hr 0.00 in0.0 mm
10:31 PM 36.6°F2.6°C 32.5°F0.3°C 85% 8.0 mph WSW12.9 kmh WSW 15.0 mph24.1 kmh 29.59 in1002.0 mb 0.00 in0.0 mm 0.00 in/hr0.0 mm/hr 0.00 in0.0 mm
10:46 PM 35.5°F1.9°C 32.6°F0.3°C 89% 6.0 mph WSW9.7 kmh WSW 11.0 mph17.7 kmh 29.59 in1002.0 mb 0.00 in0.0 mm 0.00 in/hr0.0 mm/hr 0.00 in0.0 mm
11:00 PM 34.9°F1.6°C 32.5°F0.3°C 91% 6.0 mph WSW9.7 kmh WSW 11.0 mph17.7 kmh 29.59 in1002.0 mb 0.00 in0.0 mm 0.00 in/hr0.0 mm/hr 0.00 in0.0 mm
11:16 PM 34.3°F1.3°C 32.0°F0.0°C 91% 7.0 mph WSW11.3 kmh WSW 9.0 mph14.5 kmh 29.59 in1002.0 mb 0.00 in0.0 mm 0.00 in/hr0.0 mm/hr 0.00 in0.0 mm
11:31 PM 34.6°F1.4°C 32.3°F0.2°C 91% 8.0 mph WSW12.9 kmh WSW 10.0 mph16.1 kmh 29.59 in1002.0 mb 0.00 in0.0 mm 0.00 in/hr0.0 mm/hr 0.00 in0.0 mm
11:46 PM 34.7°F1.5°C 31.8°F-0.1°C 89% 9.0 mph SW14.5 kmh SW 11.0 mph17.7 kmh 29.59 in1002.0 mb 0.00 in0.0 mm 0.00 in/hr0.0 mm/hr 0.00 in0.0 mm